Terminal Aerodrome Forecast
Issued by NWS Central Illinois

Home | Current Version | Previous Version | Text Only | Print | Product List | Glossary On
Versions: 1 2 3 4 5 6 7 8 9 10 11 12 13 14 15 16 17 18 19 20 21 22 23
000
FTUS43 KILX 300523
TAFSPI
TAF
KSPI 300523Z 3006/3106 08012KT 6SM -TSRA BR SCT015 OVC035CB
     FM300700 09012KT 4SM -TSRA OVC015CB
     FM301100 13012KT P6SM VCSH OVC010
     FM301800 18010KT P6SM VCTS OVC025CB
     FM310100 24008KT 4SM BR VCSH OVC010=

USA.gov is the U.S. government's official web portal to all federal, state and local government web resources and services.